createdAt,value
2019-01-20T00:00:57.408Z,-2.48
2019-01-20T00:03:25.887Z,-2.47
2019-01-20T00:05:54.171Z,-2.47
2019-01-20T00:08:22.417Z,-2.48
2019-01-20T00:10:50.699Z,-2.48
2019-01-20T00:13:19.027Z,-2.48
2019-01-20T00:15:47.910Z,-2.50
2019-01-20T00:18:16.156Z,-2.53
2019-01-20T00:20:44.501Z,-2.55
2019-01-20T00:23:12.848Z,-2.56
2019-01-20T00:25:41.128Z,-2.57
2019-01-20T00:28:09.401Z,-2.57
2019-01-20T00:30:37.650Z,-2.59
2019-01-20T00:33:07.839Z,-2.60
2019-01-20T00:35:36.094Z,-2.57
2019-01-20T00:38:04.342Z,-2.60
2019-01-20T00:40:32.616Z,-2.62
2019-01-20T00:43:00.893Z,-2.61
2019-01-20T00:45:29.149Z,-2.61
2019-01-20T00:47:57.450Z,-2.61
2019-01-20T00:50:25.732Z,-2.62
2019-01-20T00:52:53.974Z,-2.62
2019-01-20T00:55:22.258Z,-2.63
2019-01-20T00:57:50.684Z,-2.65
2019-01-20T01:00:22.499Z,-2.65
2019-01-20T01:02:50.777Z,-2.65
2019-01-20T01:05:19.836Z,-2.66
2019-01-20T01:07:48.319Z,-2.67
2019-01-20T01:10:16.657Z,-2.70
2019-01-20T01:12:45.599Z,-2.71
2019-01-20T01:15:13.852Z,-2.72
2019-01-20T01:17:42.203Z,-2.72
2019-01-20T01:20:13.119Z,-2.73
2019-01-20T01:22:41.470Z,-2.75
2019-01-20T01:25:11.380Z,-2.77
2019-01-20T01:27:39.662Z,-2.77
2019-01-20T01:30:11.247Z,-2.80
2019-01-20T01:32:39.613Z,-2.81
2019-01-20T01:35:08.111Z,-2.83
2019-01-20T01:37:36.594Z,-2.84
2019-01-20T01:40:08.365Z,-2.88
2019-01-20T01:42:36.661Z,-2.90
2019-01-20T01:45:08.428Z,-2.93
2019-01-20T01:47:37.450Z,-2.96
2019-01-20T01:50:07.661Z,-2.99
2019-01-20T01:52:35.913Z,-3.01
2019-01-20T01:55:04.982Z,-3.04
2019-01-20T01:57:33.317Z,-3.04
2019-01-20T02:00:01.572Z,-3.07
2019-01-20T02:02:30.016Z,-3.11
2019-01-20T02:04:58.293Z,-3.12
2019-01-20T02:07:26.534Z,-3.11
2019-01-20T02:09:54.992Z,-3.14
2019-01-20T02:12:23.301Z,-3.14
2019-01-20T02:14:51.564Z,-3.14
2019-01-20T02:17:19.820Z,-3.13
2019-01-20T02:19:48.142Z,-3.13
2019-01-20T02:22:16.498Z,-3.16
2019-01-20T02:24:44.772Z,-3.18
2019-01-20T02:27:13.042Z,-3.21
2019-01-20T02:29:41.333Z,-3.22
2019-01-20T02:32:09.654Z,-3.25
2019-01-20T02:34:37.911Z,-3.27
2019-01-20T02:37:06.164Z,-3.27
2019-01-20T02:39:34.432Z,-3.27
2019-01-20T02:42:02.743Z,-3.29
2019-01-20T02:44:30.997Z,-3.30
2019-01-20T02:46:59.265Z,-3.31
2019-01-20T02:49:27.580Z,-3.32
2019-01-20T02:51:55.830Z,-3.33
2019-01-20T02:54:24.184Z,-3.34
2019-01-20T02:56:53.022Z,-3.35
2019-01-20T02:59:21.293Z,-3.36
2019-01-20T03:01:50.412Z,-3.39
2019-01-20T03:04:18.674Z,-3.41
2019-01-20T03:06:46.985Z,-3.43
2019-01-20T03:09:15.307Z,-3.43
2019-01-20T03:11:44.170Z,-3.44
2019-01-20T03:14:12.702Z,-3.43
2019-01-20T03:16:40.943Z,-3.46
2019-01-20T03:19:09.414Z,-3.49
2019-01-20T03:21:37.667Z,-3.51
2019-01-20T03:24:05.918Z,-3.51
2019-01-20T03:26:34.274Z,-3.53
2019-01-20T03:29:02.571Z,-3.52
2019-01-20T03:31:30.856Z,-3.54
2019-01-20T03:33:59.161Z,-3.57
2019-01-20T03:36:27.420Z,-3.58
2019-01-20T03:38:55.661Z,-3.59
2019-01-20T03:41:23.981Z,-3.62
2019-01-20T03:43:52.329Z,-3.67
2019-01-20T03:46:20.742Z,-3.69
2019-01-20T03:48:49.042Z,-3.69
2019-01-20T03:51:17.282Z,-3.69
2019-01-20T03:53:45.609Z,-3.69
2019-01-20T03:56:15.487Z,-3.71
2019-01-20T03:58:43.822Z,-3.72
2019-01-20T04:01:12.164Z,-3.75
2019-01-20T04:03:40.417Z,-3.78
2019-01-20T04:06:08.757Z,-3.79
2019-01-20T04:08:37.009Z,-3.80
2019-01-20T04:11:05.300Z,-3.81
2019-01-20T04:13:33.564Z,-3.79
2019-01-20T04:16:01.816Z,-3.79
2019-01-20T04:18:30.234Z,-3.83
2019-01-20T04:20:58.517Z,-3.84
2019-01-20T04:23:26.764Z,-3.85
2019-01-20T04:25:55.078Z,-3.87
2019-01-20T04:28:23.340Z,-3.88
2019-01-20T04:30:51.589Z,-3.87
2019-01-20T04:33:19.932Z,-3.87
2019-01-20T04:35:48.303Z,-3.88
2019-01-20T04:38:16.560Z,-3.88
2019-01-20T04:40:44.806Z,-3.88
2019-01-20T04:43:13.123Z,-3.88
2019-01-20T04:45:41.367Z,-3.90
2019-01-20T04:48:09.621Z,-3.93
2019-01-20T04:50:38.497Z,-3.90
2019-01-20T04:53:08.513Z,-3.91
2019-01-20T04:55:36.835Z,-3.90
2019-01-20T04:58:05.179Z,-3.92
2019-01-20T05:00:33.466Z,-3.91
2019-01-20T05:03:01.711Z,-3.90
2019-01-20T05:05:30.040Z,-3.91
2019-01-20T05:07:58.370Z,-3.91
2019-01-20T05:10:26.666Z,-3.94
2019-01-20T05:12:54.913Z,-3.92
2019-01-20T05:15:23.688Z,-3.93
2019-01-20T05:17:51.940Z,-3.94
2019-01-20T05:20:20.319Z,-3.94
2019-01-20T05:22:48.676Z,-3.95
2019-01-20T05:25:16.917Z,-3.94
2019-01-20T05:27:45.226Z,-3.95
2019-01-20T05:30:18.999Z,-3.95
2019-01-20T05:32:47.293Z,-3.98
2019-01-20T05:35:15.566Z,-3.97
2019-01-20T05:37:43.833Z,-3.99
2019-01-20T05:40:17.099Z,-4.00
2019-01-20T05:42:46.489Z,-4.00
2019-01-20T05:45:20.267Z,-4.02
2019-01-20T05:47:48.612Z,-4.03
2019-01-20T05:50:16.868Z,-4.05
2019-01-20T05:52:45.242Z,-4.07
2019-01-20T05:55:14.740Z,-4.07
2019-01-20T05:57:42.939Z,-4.06
2019-01-20T06:00:25.814Z,-4.06
2019-01-20T06:02:54.063Z,-4.06
2019-01-20T06:05:22.322Z,-4.08
2019-01-20T06:07:50.629Z,-4.09
2019-01-20T06:10:19.643Z,-4.09
2019-01-20T06:12:53.980Z,-4.08
2019-01-20T06:15:19.748Z,-4.08
2019-01-20T06:17:47.998Z,-4.10
2019-01-20T06:20:16.929Z,-4.10
2019-01-20T06:22:45.179Z,-4.12
2019-01-20T06:25:13.435Z,-4.14
2019-01-20T06:27:41.857Z,-4.14
2019-01-20T06:30:24.678Z,-4.17
2019-01-20T06:32:53.040Z,-4.17
2019-01-20T06:35:21.406Z,-4.17
2019-01-20T06:37:49.751Z,-4.18
2019-01-20T06:40:18.132Z,-4.20
2019-01-20T06:42:47.154Z,-4.19
2019-01-20T06:45:15.677Z,-4.19
2019-01-20T06:47:44.010Z,-4.21
2019-01-20T06:50:15.021Z,-4.21
2019-01-20T06:52:43.325Z,-4.21
2019-01-20T06:55:12.702Z,-4.21
2019-01-20T06:57:41.018Z,-4.24
2019-01-20T07:00:20.838Z,-4.24
2019-01-20T07:02:49.305Z,-4.23
2019-01-20T07:05:17.571Z,-4.23
2019-01-20T07:07:45.970Z,-4.22
2019-01-20T07:10:16.664Z,-4.23
2019-01-20T07:12:44.967Z,-4.22
2019-01-20T07:15:18.179Z,-4.22
2019-01-20T07:17:46.566Z,-4.25
2019-01-20T07:20:15.283Z,-4.25
2019-01-20T07:22:43.586Z,-4.23
2019-01-20T07:25:12.705Z,-4.24
2019-01-20T07:27:40.964Z,-4.23
2019-01-20T07:30:20.672Z,-4.22
2019-01-20T07:32:48.934Z,-4.21
2019-01-20T07:35:17.407Z,-4.19
2019-01-20T07:37:45.791Z,-4.19
2019-01-20T07:40:16.595Z,-4.17
2019-01-20T07:42:45.468Z,-4.17
2019-01-20T07:45:16.250Z,-4.16
2019-01-20T07:47:44.555Z,-4.16
2019-01-20T07:50:15.910Z,-4.13
2019-01-20T07:52:44.230Z,-4.14
2019-01-20T07:55:12.527Z,-4.13
2019-01-20T07:57:42.215Z,-4.11
2019-01-20T08:00:21.509Z,-4.10
2019-01-20T08:02:49.791Z,-4.09
2019-01-20T08:05:18.301Z,-4.08
2019-01-20T08:07:46.610Z,-4.07
2019-01-20T08:10:18.157Z,-4.09
2019-01-20T08:12:46.413Z,-4.07
2019-01-20T08:15:15.984Z,-4.04
2019-01-20T08:17:44.270Z,-4.02
2019-01-20T08:20:15.152Z,-4.01
2019-01-20T08:22:43.434Z,-4.00
2019-01-20T08:25:13.033Z,-3.98
2019-01-20T08:27:41.323Z,-3.96
2019-01-20T08:30:18.683Z,-3.93
2019-01-20T08:32:46.978Z,-3.90
2019-01-20T08:35:15.301Z,-3.85
2019-01-20T08:37:43.650Z,-3.81
2019-01-20T08:40:27.412Z,-3.79
2019-01-20T08:42:55.715Z,-3.77
2019-01-20T08:45:36.310Z,-3.73
2019-01-20T08:48:16.589Z,-3.69
2019-01-20T08:50:44.946Z,-3.65
2019-01-20T08:53:13.258Z,-3.61
2019-01-20T08:55:41.549Z,-3.57
2019-01-20T08:58:09.921Z,-3.50
2019-01-20T09:00:38.231Z,-3.44
2019-01-20T09:03:06.538Z,-3.35
2019-01-20T09:05:34.788Z,-3.28
2019-01-20T09:08:03.094Z,-3.21
2019-01-20T09:10:32.072Z,-3.15
2019-01-20T09:13:00.929Z,-3.06
2019-01-20T09:15:29.305Z,-2.96
2019-01-20T09:17:57.558Z,-2.87
2019-01-20T09:20:25.857Z,-2.80
2019-01-20T09:22:54.190Z,-2.73
2019-01-20T09:25:22.435Z,-2.67
2019-01-20T09:27:50.746Z,-2.59
2019-01-20T09:30:21.401Z,-2.55
2019-01-20T09:32:49.712Z,-2.50
2019-01-20T09:35:18.097Z,-2.47
2019-01-20T09:37:46.352Z,-2.42
2019-01-20T09:40:18.510Z,-2.40
2019-01-20T09:42:47.473Z,-2.37
2019-01-20T09:45:23.758Z,-2.33
2019-01-20T09:47:52.152Z,-2.31
2019-01-20T09:50:20.462Z,-2.26
2019-01-20T09:52:48.730Z,-2.24
2019-01-20T09:55:16.990Z,-2.20
2019-01-20T09:57:45.318Z,-2.14
2019-01-20T10:00:31.628Z,-2.05
2019-01-20T10:03:00.048Z,-2.04
2019-01-20T10:05:28.310Z,-2.00
2019-01-20T10:07:56.577Z,-1.96
2019-01-20T10:10:24.860Z,-1.92
2019-01-20T10:12:53.258Z,-1.88
2019-01-20T10:15:21.522Z,-1.86
2019-01-20T10:17:50.100Z,-1.83
2019-01-20T10:20:21.705Z,-1.77
2019-01-20T10:22:49.993Z,-1.71
2019-01-20T10:25:18.315Z,-1.67
2019-01-20T10:27:46.732Z,-1.62
2019-01-20T10:30:21.120Z,-1.57
2019-01-20T10:32:49.420Z,-1.53
2019-01-20T10:35:19.176Z,-1.46
2019-01-20T10:37:47.714Z,-1.38
2019-01-20T10:40:15.979Z,-1.29
2019-01-20T10:42:44.258Z,-1.22
2019-01-20T10:45:12.552Z,-1.15
2019-01-20T10:47:40.847Z,-1.07
2019-01-20T10:50:12.074Z,-1.00
2019-01-20T10:52:40.408Z,-0.95
2019-01-20T10:55:08.844Z,-0.91
2019-01-20T10:57:37.182Z,-0.85
2019-01-20T11:00:14.595Z,-0.79
2019-01-20T11:02:42.882Z,-0.78
2019-01-20T11:05:11.148Z,-0.72
2019-01-20T11:07:39.577Z,-0.66
2019-01-20T11:10:10.624Z,-0.60
2019-01-20T11:12:38.880Z,-0.53
2019-01-20T11:15:15.358Z,-0.40
2019-01-20T11:17:43.664Z,-0.42
2019-01-20T11:20:19.833Z,-0.34
2019-01-20T11:22:48.103Z,-0.26
2019-01-20T11:25:19.737Z,-0.19
2019-01-20T11:27:48.049Z,-0.16
2019-01-20T11:30:16.328Z,-0.13
2019-01-20T11:32:44.628Z,-0.07
2019-01-20T11:35:15.783Z,-0.03
2019-01-20T11:37:44.059Z,0.03
2019-01-20T11:40:13.815Z,0.06
2019-01-20T11:42:42.159Z,0.08
2019-01-20T11:45:13.951Z,0.14
2019-01-20T11:47:42.235Z,0.16
2019-01-20T11:50:12.481Z,0.20
2019-01-20T11:52:40.794Z,0.25
2019-01-20T11:55:12.314Z,0.31
2019-01-20T11:57:40.570Z,0.38
2019-01-20T12:00:20.552Z,0.37
2019-01-20T12:02:48.940Z,0.41
2019-01-20T12:05:18.124Z,0.46
2019-01-20T12:07:47.150Z,0.47
2019-01-20T12:10:15.475Z,0.51
2019-01-20T12:12:45.377Z,0.56
2019-01-20T12:15:15.640Z,0.62
2019-01-20T12:17:43.903Z,0.68
2019-01-20T12:20:14.580Z,0.70
2019-01-20T12:22:42.860Z,0.73
2019-01-20T12:25:14.312Z,0.77
2019-01-20T12:27:42.641Z,0.82
2019-01-20T12:30:14.359Z,0.85
2019-01-20T12:32:42.664Z,0.86
2019-01-20T12:35:10.945Z,0.87
2019-01-20T12:37:39.203Z,0.87
2019-01-20T12:40:25.548Z,0.90
2019-01-20T12:42:53.803Z,0.92
2019-01-20T12:45:22.082Z,0.92
2019-01-20T12:47:50.415Z,0.94
2019-01-20T12:50:18.883Z,0.99
2019-01-20T12:52:47.143Z,1.01
2019-01-20T12:55:16.208Z,1.02
2019-01-20T12:57:44.453Z,1.05
2019-01-20T13:00:19.692Z,1.04
2019-01-20T13:02:48.151Z,1.08
2019-01-20T13:05:16.485Z,1.05
2019-01-20T13:07:45.712Z,1.08
2019-01-20T13:10:16.591Z,1.08
2019-01-20T13:12:44.896Z,1.10
2019-01-20T13:15:18.815Z,1.12
2019-01-20T13:17:47.089Z,1.15
2019-01-20T13:20:20.050Z,1.19
2019-01-20T13:22:48.398Z,1.22
2019-01-20T13:25:19.645Z,1.28
2019-01-20T13:27:47.948Z,1.31
2019-01-20T13:30:18.617Z,1.33
2019-01-20T13:32:46.887Z,1.36
2019-01-20T13:35:16.007Z,1.41
2019-01-20T13:37:47.531Z,1.43
2019-01-20T13:40:34.060Z,1.43
2019-01-20T13:43:02.565Z,1.46
2019-01-20T13:45:30.858Z,1.39
2019-01-20T13:47:59.159Z,1.33
2019-01-20T13:50:27.440Z,1.34
2019-01-20T13:52:55.771Z,1.33
2019-01-20T13:55:24.149Z,1.33
2019-01-20T13:57:52.400Z,1.32
2019-01-20T14:00:22.949Z,1.33
2019-01-20T14:02:51.260Z,1.35
2019-01-20T14:05:19.546Z,1.41
2019-01-20T14:07:47.801Z,1.45
2019-01-20T14:10:18.638Z,1.48
2019-01-20T14:12:46.895Z,1.46
2019-01-20T14:15:16.091Z,1.50
2019-01-20T14:17:45.457Z,1.52
2019-01-20T14:20:16.851Z,1.58
2019-01-20T14:22:45.124Z,1.60
2019-01-20T14:25:19.239Z,1.62
2019-01-20T14:27:47.524Z,1.61
2019-01-20T14:30:18.117Z,1.61
2019-01-20T14:32:46.402Z,1.63
2019-01-20T14:35:14.960Z,1.65
2019-01-20T14:37:43.208Z,1.65
2019-01-20T14:40:14.416Z,1.69
2019-01-20T14:42:42.682Z,1.68
2019-01-20T14:45:13.690Z,1.67
2019-01-20T14:47:42.018Z,1.66
2019-01-20T14:50:16.365Z,1.63
2019-01-20T14:52:44.672Z,1.65
2019-01-20T14:55:12.931Z,1.58
2019-01-20T14:57:41.187Z,1.53
2019-01-20T15:00:21.324Z,1.50
2019-01-20T15:02:49.642Z,1.47
2019-01-20T15:05:17.898Z,1.41
2019-01-20T15:07:46.196Z,1.38
2019-01-20T15:10:16.297Z,1.36
2019-01-20T15:12:44.542Z,1.31
2019-01-20T15:15:16.102Z,1.28
2019-01-20T15:17:44.355Z,1.24
2019-01-20T15:20:14.448Z,1.19
2019-01-20T15:22:42.794Z,1.15
2019-01-20T15:25:16.627Z,1.10
2019-01-20T15:27:44.958Z,1.06
2019-01-20T15:30:19.374Z,1.01
2019-01-20T15:32:47.726Z,0.98
2019-01-20T15:35:18.923Z,0.95
2019-01-20T15:37:47.208Z,0.93
2019-01-20T15:40:18.559Z,0.90
2019-01-20T15:42:46.897Z,0.88
2019-01-20T15:45:17.701Z,0.84
2019-01-20T15:47:45.960Z,0.81
2019-01-20T15:50:19.885Z,0.78
2019-01-20T15:52:48.168Z,0.75
2019-01-20T15:55:16.553Z,0.72
2019-01-20T15:57:44.814Z,0.70
2019-01-20T16:00:18.656Z,0.68
2019-01-20T16:02:46.938Z,0.63
2019-01-20T16:05:15.233Z,0.59
2019-01-20T16:07:44.336Z,0.56
2019-01-20T16:10:14.710Z,0.53
2019-01-20T16:12:42.965Z,0.48
2019-01-20T16:15:14.186Z,0.45
2019-01-20T16:17:43.312Z,0.40
2019-01-20T16:20:14.782Z,0.36
2019-01-20T16:22:43.122Z,0.32
2019-01-20T16:25:14.907Z,0.28
2019-01-20T16:27:45.757Z,0.24
2019-01-20T16:30:22.708Z,0.22
2019-01-20T16:32:51.032Z,0.19
2019-01-20T16:35:19.398Z,0.16
2019-01-20T16:37:47.714Z,0.13
2019-01-20T16:40:18.581Z,0.10
2019-01-20T16:42:46.846Z,0.07
2019-01-20T16:45:20.556Z,0.04
2019-01-20T16:47:48.815Z,-0.02
2019-01-20T16:50:19.635Z,-0.06
2019-01-20T16:52:47.969Z,-0.09
2019-01-20T16:55:16.296Z,-0.12
2019-01-20T16:57:44.581Z,-0.16
2019-01-20T17:00:18.732Z,-0.18
2019-01-20T17:02:47.044Z,-0.21
2019-01-20T17:05:15.311Z,-0.25
2019-01-20T17:07:43.786Z,-0.28
2019-01-20T17:10:20.599Z,-0.31
2019-01-20T17:12:48.951Z,-0.32
2019-01-20T17:15:20.074Z,-0.34
2019-01-20T17:17:48.341Z,-0.39
2019-01-20T17:20:17.222Z,-0.42
2019-01-20T17:22:46.072Z,-0.45
2019-01-20T17:25:15.854Z,-0.48
2019-01-20T17:27:44.110Z,-0.50
2019-01-20T17:30:18.125Z,-0.52
2019-01-20T17:32:46.731Z,-0.56
2019-01-20T17:35:15.131Z,-0.59
2019-01-20T17:37:43.544Z,-0.62
2019-01-20T17:40:15.113Z,-0.65
2019-01-20T17:42:43.423Z,-0.72
2019-01-20T17:45:15.158Z,-0.78
2019-01-20T17:47:43.472Z,-0.85
2019-01-20T17:50:14.990Z,-0.91
2019-01-20T17:52:43.322Z,-0.97
2019-01-20T17:55:11.638Z,-1.03
2019-01-20T17:57:39.948Z,-1.08
2019-01-20T18:00:14.358Z,-1.12
2019-01-20T18:02:42.620Z,-1.17
2019-01-20T18:05:13.763Z,-1.20
2019-01-20T18:07:42.126Z,-1.24
2019-01-20T18:10:13.316Z,-1.29
2019-01-20T18:12:41.621Z,-1.31
2019-01-20T18:15:12.736Z,-1.35
2019-01-20T18:17:41.055Z,-1.39
2019-01-20T18:20:21.155Z,-1.46
2019-01-20T18:22:49.508Z,-1.49
2019-01-20T18:25:18.908Z,-1.53
2019-01-20T18:27:47.226Z,-1.55
2019-01-20T18:30:21.065Z,-1.59
2019-01-20T18:32:49.334Z,-1.62
2019-01-20T18:35:17.596Z,-1.64
2019-01-20T18:37:45.881Z,-1.68
2019-01-20T18:40:16.879Z,-1.73
2019-01-20T18:42:45.292Z,-1.74
2019-01-20T18:45:15.947Z,-1.75
2019-01-20T18:47:44.284Z,-1.77
2019-01-20T18:50:24.124Z,-1.78
2019-01-20T18:52:52.624Z,-1.79
2019-01-20T18:55:20.932Z,-1.81
2019-01-20T18:57:49.283Z,-1.83
2019-01-20T19:00:20.576Z,-1.85
2019-01-20T19:02:49.447Z,-1.87
2019-01-20T19:05:18.257Z,-1.90
2019-01-20T19:07:46.546Z,-1.91
2019-01-20T19:10:16.953Z,-1.95
2019-01-20T19:12:45.286Z,-1.98
2019-01-20T19:15:15.927Z,-2.04
2019-01-20T19:17:44.195Z,-2.05
2019-01-20T19:20:17.772Z,-2.09
2019-01-20T19:22:47.049Z,-2.10
2019-01-20T19:25:15.572Z,-2.13
2019-01-20T19:27:44.490Z,-2.15
2019-01-20T19:30:19.430Z,-2.17
2019-01-20T19:32:48.643Z,-2.18
2019-01-20T19:35:18.634Z,-2.18
2019-01-20T19:37:47.924Z,-2.23
2019-01-20T19:40:17.737Z,-2.23
2019-01-20T19:42:47.343Z,-2.23
2019-01-20T19:45:19.101Z,-2.22
2019-01-20T19:47:48.627Z,-2.23
2019-01-20T19:50:19.314Z,-2.23
2019-01-20T19:52:48.773Z,-2.24
2019-01-20T19:55:24.363Z,-2.25
2019-01-20T19:57:53.768Z,-2.25
2019-01-20T20:00:28.316Z,-2.24
2019-01-20T20:02:57.488Z,-2.24
2019-01-20T20:05:26.767Z,-2.24
2019-01-20T20:07:56.609Z,-2.24
2019-01-20T20:10:27.254Z,-2.23
2019-01-20T20:12:56.920Z,-2.20
2019-01-20T20:15:26.892Z,-2.19
2019-01-20T20:17:55.735Z,-2.19
2019-01-20T20:20:24.189Z,-2.22
2019-01-20T20:22:52.596Z,-2.24
2019-01-20T20:25:25.402Z,-2.24
2019-01-20T20:27:54.250Z,-2.24
2019-01-20T20:30:33.666Z,-2.24
2019-01-20T20:33:02.023Z,-2.27
2019-01-20T20:35:30.286Z,-2.27
2019-01-20T20:37:58.545Z,-2.30
2019-01-20T20:40:26.896Z,-2.32
2019-01-20T20:42:55.164Z,-2.32
2019-01-20T20:45:25.354Z,-2.33
2019-01-20T20:47:53.626Z,-2.33
2019-01-20T20:50:21.890Z,-2.33
2019-01-20T20:52:50.233Z,-2.32
2019-01-20T20:55:18.553Z,-2.32
2019-01-20T20:57:46.839Z,-2.30
2019-01-20T21:00:27.560Z,-2.31
2019-01-20T21:02:56.429Z,-2.31
2019-01-20T21:05:24.747Z,-2.32
2019-01-20T21:07:52.997Z,-2.34
2019-01-20T21:10:21.453Z,-2.36
2019-01-20T21:12:49.717Z,-2.37
2019-01-20T21:15:18.029Z,-2.39
2019-01-20T21:17:48.350Z,-2.42
2019-01-20T21:20:19.472Z,-2.45
2019-01-20T21:22:47.758Z,-2.47
2019-01-20T21:25:16.016Z,-2.47
2019-01-20T21:27:44.326Z,-2.49
2019-01-20T21:30:15.392Z,-2.51
2019-01-20T21:32:43.690Z,-2.55
2019-01-20T21:35:12.072Z,-2.58
2019-01-20T21:37:40.358Z,-2.62
2019-01-20T21:40:13.793Z,-2.65
2019-01-20T21:42:42.091Z,-2.69
2019-01-20T21:45:11.998Z,-2.72
2019-01-20T21:47:40.250Z,-2.75
2019-01-20T21:50:17.526Z,-2.78
2019-01-20T21:52:45.927Z,-2.82
2019-01-20T21:55:14.219Z,-2.86
2019-01-20T21:57:42.514Z,-2.89
2019-01-20T22:00:21.742Z,-2.92
2019-01-20T22:02:50.101Z,-2.95
2019-01-20T22:05:18.347Z,-3.00
2019-01-20T22:07:46.653Z,-3.02
2019-01-20T22:10:17.096Z,-3.07
2019-01-20T22:12:45.354Z,-3.08
2019-01-20T22:15:13.951Z,-3.10
2019-01-20T22:17:42.197Z,-3.12
2019-01-20T22:20:13.782Z,-3.14
2019-01-20T22:22:42.195Z,-3.16
2019-01-20T22:25:11.492Z,-3.18
2019-01-20T22:27:39.803Z,-3.19
2019-01-20T22:30:11.318Z,-3.22
2019-01-20T22:32:41.378Z,-3.24
2019-01-20T22:35:11.769Z,-3.26
2019-01-20T22:37:40.721Z,-3.31
2019-01-20T22:40:11.368Z,-3.35
2019-01-20T22:42:40.461Z,-3.37
2019-01-20T22:45:14.660Z,-3.40
2019-01-20T22:47:42.968Z,-3.42
2019-01-20T22:50:12.840Z,-3.44
2019-01-20T22:52:41.182Z,-3.46
2019-01-20T22:55:12.284Z,-3.49
2019-01-20T22:57:40.564Z,-3.52
2019-01-20T23:00:18.039Z,-3.52
2019-01-20T23:02:46.442Z,-3.54
2019-01-20T23:05:14.728Z,-3.57
2019-01-20T23:07:43.041Z,-3.59
2019-01-20T23:10:11.303Z,-3.61
2019-01-20T23:12:39.592Z,-3.64
2019-01-20T23:15:09.815Z,-3.67
2019-01-20T23:17:38.127Z,-3.69
2019-01-20T23:20:09.637Z,-3.69
2019-01-20T23:22:38.246Z,-3.70
2019-01-20T23:25:06.586Z,-3.70
2019-01-20T23:27:34.999Z,-3.71
2019-01-20T23:30:03.320Z,-3.73
2019-01-20T23:32:31.578Z,-3.76
2019-01-20T23:34:59.831Z,-3.77
2019-01-20T23:37:28.204Z,-3.80
2019-01-20T23:39:56.462Z,-3.83
2019-01-20T23:42:24.779Z,-3.85
2019-01-20T23:44:53.039Z,-3.85
2019-01-20T23:47:21.319Z,-3.87
2019-01-20T23:49:49.572Z,-3.86
2019-01-20T23:52:17.885Z,-3.84
2019-01-20T23:54:46.202Z,-3.83
2019-01-20T23:57:14.465Z,-3.84
2019-01-20T23:59:42.747Z,-3.84
